sensor_id;sensor_type;location;lat;lon;timestamp;P1;durP1;ratioP1;P2;durP2;ratioP2
50631;SDS011;49583;45.590;-122.498;2024-03-06T00:00:09;0.70;;;0.70;;
50631;SDS011;49583;45.590;-122.498;2024-03-06T00:02:54;1.30;;;0.80;;
50631;SDS011;49583;45.590;-122.498;2024-03-06T00:05:17;0.90;;;0.90;;
50631;SDS011;49583;45.590;-122.498;2024-03-06T00:07:29;0.70;;;0.70;;
50631;SDS011;49583;45.590;-122.498;2024-03-06T00:09:42;0.70;;;0.70;;
50631;SDS011;49583;45.590;-122.498;2024-03-06T00:11:56;0.70;;;0.70;;
50631;SDS011;49583;45.590;-122.498;2024-03-06T00:14:10;0.90;;;0.70;;
50631;SDS011;49583;45.590;-122.498;2024-03-06T00:16:23;1.20;;;0.60;;
50631;SDS011;49583;45.590;-122.498;2024-03-06T00:18:35;0.80;;;0.80;;
50631;SDS011;49583;45.590;-122.498;2024-03-06T00:20:47;1.00;;;0.90;;
50631;SDS011;49583;45.590;-122.498;2024-03-06T00:23:03;0.90;;;0.90;;
50631;SDS011;49583;45.590;-122.498;2024-03-06T00:25:16;0.80;;;0.80;;
50631;SDS011;49583;45.590;-122.498;2024-03-06T00:27:29;0.90;;;0.80;;
50631;SDS011;49583;45.590;-122.498;2024-03-06T00:29:41;1.20;;;0.80;;
50631;SDS011;49583;45.590;-122.498;2024-03-06T00:31:54;5.60;;;0.90;;
50631;SDS011;49583;45.590;-122.498;2024-03-06T00:34:07;0.90;;;0.90;;
50631;SDS011;49583;45.590;-122.498;2024-03-06T00:36:41;2.40;;;0.80;;
50631;SDS011;49583;45.590;-122.498;2024-03-06T00:38:54;0.60;;;0.60;;
50631;SDS011;49583;45.590;-122.498;2024-03-06T00:41:07;0.60;;;0.60;;
50631;SDS011;49583;45.590;-122.498;2024-03-06T00:43:24;1.10;;;0.80;;
50631;SDS011;49583;45.590;-122.498;2024-03-06T00:45:37;1.50;;;0.90;;
50631;SDS011;49583;45.590;-122.498;2024-03-06T00:47:50;0.90;;;0.70;;
50631;SDS011;49583;45.590;-122.498;2024-03-06T00:50:03;0.80;;;0.70;;
50631;SDS011;49583;45.590;-122.498;2024-03-06T00:52:17;1.80;;;1.30;;
50631;SDS011;49583;45.590;-122.498;2024-03-06T00:54:29;1.00;;;0.80;;
50631;SDS011;49583;45.590;-122.498;2024-03-06T00:56:42;0.60;;;0.60;;
50631;SDS011;49583;45.590;-122.498;2024-03-06T00:59:15;1.30;;;0.90;;
50631;SDS011;49583;45.590;-122.498;2024-03-06T01:01:28;1.90;;;0.50;;
50631;SDS011;49583;45.590;-122.498;2024-03-06T01:03:52;0.80;;;0.60;;
50631;SDS011;49583;45.590;-122.498;2024-03-06T01:06:09;0.70;;;0.70;;
50631;SDS011;49583;45.590;-122.498;2024-03-06T01:08:24;0.70;;;0.70;;
50631;SDS011;49583;45.590;-122.498;2024-03-06T01:10:47;0.70;;;0.70;;
50631;SDS011;49583;45.590;-122.498;2024-03-06T01:13:02;0.60;;;0.60;;
50631;SDS011;49583;45.590;-122.498;2024-03-06T01:15:18;1.00;;;0.70;;
50631;SDS011;49583;45.590;-122.498;2024-03-06T01:17:31;1.40;;;0.50;;
50631;SDS011;49583;45.590;-122.498;2024-03-06T01:19:44;0.60;;;0.60;;
50631;SDS011;49583;45.590;-122.498;2024-03-06T01:21:56;0.60;;;0.60;;
50631;SDS011;49583;45.590;-122.498;2024-03-06T01:24:09;0.70;;;0.70;;
50631;SDS011;49583;45.590;-122.498;2024-03-06T01:26:21;1.50;;;0.80;;
50631;SDS011;49583;45.590;-122.498;2024-03-06T01:28:34;0.80;;;0.60;;
50631;SDS011;49583;45.590;-122.498;2024-03-06T01:30:50;0.60;;;0.60;;
50631;SDS011;49583;45.590;-122.498;2024-03-06T01:33:04;0.60;;;0.50;;
50631;SDS011;49583;45.590;-122.498;2024-03-06T01:35:17;0.60;;;0.60;;
50631;SDS011;49583;45.590;-122.498;2024-03-06T01:37:31;0.50;;;0.50;;
50631;SDS011;49583;45.590;-122.498;2024-03-06T01:39:43;0.50;;;0.50;;
50631;SDS011;49583;45.590;-122.498;2024-03-06T01:41:56;0.60;;;0.60;;
50631;SDS011;49583;45.590;-122.498;2024-03-06T01:44:09;0.60;;;0.60;;
50631;SDS011;49583;45.590;-122.498;2024-03-06T01:46:22;1.40;;;0.70;;
50631;SDS011;49583;45.590;-122.498;2024-03-06T01:48:35;1.10;;;0.90;;
50631;SDS011;49583;45.590;-122.498;2024-03-06T01:50:47;1.00;;;0.60;;
50631;SDS011;49583;45.590;-122.498;2024-03-06T01:53:01;0.70;;;0.70;;
50631;SDS011;49583;45.590;-122.498;2024-03-06T01:55:14;0.80;;;0.80;;
50631;SDS011;49583;45.590;-122.498;2024-03-06T01:57:37;0.80;;;0.80;;
50631;SDS011;49583;45.590;-122.498;2024-03-06T01:59:59;1.50;;;0.80;;
50631;SDS011;49583;45.590;-122.498;2024-03-06T02:02:15;1.20;;;1.10;;
50631;SDS011;49583;45.590;-122.498;2024-03-06T02:04:28;1.20;;;1.00;;
50631;SDS011;49583;45.590;-122.498;2024-03-06T02:07:01;0.70;;;0.70;;
50631;SDS011;49583;45.590;-122.498;2024-03-06T02:09:18;1.20;;;0.90;;
50631;SDS011;49583;45.590;-122.498;2024-03-06T02:11:33;1.00;;;0.90;;
50631;SDS011;49583;45.590;-122.498;2024-03-06T02:13:46;0.80;;;0.80;;
50631;SDS011;49583;45.590;-122.498;2024-03-06T02:16:09;1.00;;;0.90;;
50631;SDS011;49583;45.590;-122.498;2024-03-06T02:18:28;0.80;;;0.80;;
50631;SDS011;49583;45.590;-122.498;2024-03-06T02:20:41;0.90;;;0.80;;
50631;SDS011;49583;45.590;-122.498;2024-03-06T02:23:17;2.50;;;1.50;;
50631;SDS011;49583;45.590;-122.498;2024-03-06T02:25:30;0.50;;;0.50;;
50631;SDS011;49583;45.590;-122.498;2024-03-06T02:27:43;0.80;;;0.80;;
50631;SDS011;49583;45.590;-122.498;2024-03-06T02:29:57;1.70;;;0.70;;
50631;SDS011;49583;45.590;-122.498;2024-03-06T02:32:11;1.00;;;0.70;;
50631;SDS011;49583;45.590;-122.498;2024-03-06T02:34:25;1.50;;;0.90;;
50631;SDS011;49583;45.590;-122.498;2024-03-06T02:36:38;1.10;;;1.00;;
50631;SDS011;49583;45.590;-122.498;2024-03-06T02:39:00;1.50;;;1.00;;
50631;SDS011;49583;45.590;-122.498;2024-03-06T02:41:27;2.20;;;0.90;;
50631;SDS011;49583;45.590;-122.498;2024-03-06T02:43:39;1.40;;;1.10;;
50631;SDS011;49583;45.590;-122.498;2024-03-06T02:45:52;0.90;;;0.70;;
50631;SDS011;49583;45.590;-122.498;2024-03-06T02:48:05;3.10;;;1.00;;
50631;SDS011;49583;45.590;-122.498;2024-03-06T02:50:18;2.10;;;1.00;;
50631;SDS011;49583;45.590;-122.498;2024-03-06T02:52:52;1.60;;;0.90;;
50631;SDS011;49583;45.590;-122.498;2024-03-06T02:55:05;1.70;;;0.90;;
50631;SDS011;49583;45.590;-122.498;2024-03-06T02:57:28;3.50;;;1.20;;
50631;SDS011;49583;45.590;-122.498;2024-03-06T02:59:45;2.00;;;1.20;;
50631;SDS011;49583;45.590;-122.498;2024-03-06T03:01:57;3.40;;;1.20;;
50631;SDS011;49583;45.590;-122.498;2024-03-06T03:04:12;1.70;;;1.20;;
50631;SDS011;49583;45.590;-122.498;2024-03-06T03:06:28;1.60;;;1.10;;
50631;SDS011;49583;45.590;-122.498;2024-03-06T03:08:44;5.10;;;1.40;;
50631;SDS011;49583;45.590;-122.498;2024-03-06T03:10:56;5.90;;;1.60;;
50631;SDS011;49583;45.590;-122.498;2024-03-06T03:13:09;2.30;;;1.20;;
50631;SDS011;49583;45.590;-122.498;2024-03-06T03:15:33;1.70;;;1.10;;
50631;SDS011;49583;45.590;-122.498;2024-03-06T03:17:59;2.50;;;1.30;;
50631;SDS011;49583;45.590;-122.498;2024-03-06T03:20:32;1.80;;;1.30;;
50631;SDS011;49583;45.590;-122.498;2024-03-06T03:22:45;2.90;;;1.60;;
50631;SDS011;49583;45.590;-122.498;2024-03-06T03:24:58;3.70;;;1.60;;
50631;SDS011;49583;45.590;-122.498;2024-03-06T03:27:11;2.10;;;1.20;;
50631;SDS011;49583;45.590;-122.498;2024-03-06T03:29:23;2.90;;;1.50;;
50631;SDS011;49583;45.590;-122.498;2024-03-06T03:31:48;3.00;;;1.30;;
50631;SDS011;49583;45.590;-122.498;2024-03-06T03:34:05;2.90;;;1.50;;
50631;SDS011;49583;45.590;-122.498;2024-03-06T03:36:18;2.40;;;1.40;;
50631;SDS011;49583;45.590;-122.498;2024-03-06T03:38:30;1.90;;;1.80;;
50631;SDS011;49583;45.590;-122.498;2024-03-06T03:40:49;2.10;;;1.70;;
50631;SDS011;49583;45.590;-122.498;2024-03-06T03:43:02;2.30;;;1.50;;
50631;SDS011;49583;45.590;-122.498;2024-03-06T03:45:16;5.00;;;1.50;;
50631;SDS011;49583;45.590;-122.498;2024-03-06T03:47:32;5.70;;;1.70;;
50631;SDS011;49583;45.590;-122.498;2024-03-06T03:49:45;4.10;;;1.90;;
50631;SDS011;49583;45.590;-122.498;2024-03-06T03:52:18;5.80;;;1.60;;
50631;SDS011;49583;45.590;-122.498;2024-03-06T03:54:43;7.40;;;1.50;;
50631;SDS011;49583;45.590;-122.498;2024-03-06T03:56:56;4.50;;;1.60;;
50631;SDS011;49583;45.590;-122.498;2024-03-06T03:59:28;5.50;;;1.80;;
50631;SDS011;49583;45.590;-122.498;2024-03-06T04:01:41;5.10;;;1.70;;
50631;SDS011;49583;45.590;-122.498;2024-03-06T04:03:58;4.80;;;1.80;;
50631;SDS011;49583;45.590;-122.498;2024-03-06T04:06:11;2.00;;;1.40;;
50631;SDS011;49583;45.590;-122.498;2024-03-06T04:08:44;3.20;;;1.70;;
50631;SDS011;49583;45.590;-122.498;2024-03-06T04:10:58;3.80;;;1.50;;
50631;SDS011;49583;45.590;-122.498;2024-03-06T04:13:14;1.90;;;1.50;;
50631;SDS011;49583;45.590;-122.498;2024-03-06T04:15:31;1.80;;;1.50;;
50631;SDS011;49583;45.590;-122.498;2024-03-06T04:17:46;1.80;;;1.70;;
50631;SDS011;49583;45.590;-122.498;2024-03-06T04:20:03;1.90;;;1.70;;
50631;SDS011;49583;45.590;-122.498;2024-03-06T04:22:20;2.30;;;1.80;;
50631;SDS011;49583;45.590;-122.498;2024-03-06T04:24:47;3.30;;;2.20;;
50631;SDS011;49583;45.590;-122.498;2024-03-06T04:27:00;2.20;;;1.50;;
50631;SDS011;49583;45.590;-122.498;2024-03-06T04:29:13;2.90;;;1.80;;
50631;SDS011;49583;45.590;-122.498;2024-03-06T04:31:30;3.60;;;1.80;;
50631;SDS011;49583;45.590;-122.498;2024-03-06T04:33:43;2.10;;;1.70;;
50631;SDS011;49583;45.590;-122.498;2024-03-06T04:35:55;2.60;;;1.30;;
50631;SDS011;49583;45.590;-122.498;2024-03-06T04:38:10;1.70;;;1.60;;
50631;SDS011;49583;45.590;-122.498;2024-03-06T04:40:25;4.20;;;1.80;;
50631;SDS011;49583;45.590;-122.498;2024-03-06T04:42:41;3.60;;;1.80;;
50631;SDS011;49583;45.590;-122.498;2024-03-06T04:44:59;2.00;;;1.60;;
50631;SDS011;49583;45.590;-122.498;2024-03-06T04:47:32;2.20;;;1.70;;
50631;SDS011;49583;45.590;-122.498;2024-03-06T04:49:45;4.10;;;1.50;;
50631;SDS011;49583;45.590;-122.498;2024-03-06T04:52:18;2.80;;;2.10;;
50631;SDS011;49583;45.590;-122.498;2024-03-06T04:54:42;2.60;;;1.90;;
50631;SDS011;49583;45.590;-122.498;2024-03-06T04:56:55;2.90;;;1.80;;
50631;SDS011;49583;45.590;-122.498;2024-03-06T04:59:08;1.70;;;1.50;;
50631;SDS011;49583;45.590;-122.498;2024-03-06T05:01:21;5.60;;;1.80;;
50631;SDS011;49583;45.590;-122.498;2024-03-06T05:03:34;4.70;;;1.90;;
50631;SDS011;49583;45.590;-122.498;2024-03-06T05:06:14;3.20;;;2.00;;
50631;SDS011;49583;45.590;-122.498;2024-03-06T05:08:47;4.30;;;2.00;;
50631;SDS011;49583;45.590;-122.498;2024-03-06T05:11:26;3.30;;;1.90;;
50631;SDS011;49583;45.590;-122.498;2024-03-06T05:14:00;3.00;;;2.00;;
50631;SDS011;49583;45.590;-122.498;2024-03-06T05:16:31;4.70;;;2.00;;
50631;SDS011;49583;45.590;-122.498;2024-03-06T05:19:00;2.10;;;1.90;;
50631;SDS011;49583;45.590;-122.498;2024-03-06T05:21:34;4.30;;;2.10;;
50631;SDS011;49583;45.590;-122.498;2024-03-06T05:24:03;3.50;;;2.10;;
50631;SDS011;49583;45.590;-122.498;2024-03-06T05:26:35;2.70;;;1.80;;
50631;SDS011;49583;45.590;-122.498;2024-03-06T05:29:12;5.10;;;2.10;;
50631;SDS011;49583;45.590;-122.498;2024-03-06T05:31:44;4.60;;;2.00;;
50631;SDS011;49583;45.590;-122.498;2024-03-06T05:34:13;3.50;;;2.00;;
50631;SDS011;49583;45.590;-122.498;2024-03-06T05:36:49;2.10;;;1.90;;
50631;SDS011;49583;45.590;-122.498;2024-03-06T05:39:38;2.60;;;2.20;;
50631;SDS011;49583;45.590;-122.498;2024-03-06T05:42:08;3.50;;;2.30;;
50631;SDS011;49583;45.590;-122.498;2024-03-06T05:44:41;2.40;;;2.10;;
50631;SDS011;49583;45.590;-122.498;2024-03-06T05:47:20;6.70;;;2.30;;
50631;SDS011;49583;45.590;-122.498;2024-03-06T05:50:10;3.40;;;2.40;;
50631;SDS011;49583;45.590;-122.498;2024-03-06T05:52:43;3.60;;;2.10;;
50631;SDS011;49583;45.590;-122.498;2024-03-06T05:55:15;2.30;;;2.10;;
50631;SDS011;49583;45.590;-122.498;2024-03-06T05:57:55;3.10;;;2.60;;
50631;SDS011;49583;45.590;-122.498;2024-03-06T06:00:22;2.40;;;2.10;;
50631;SDS011;49583;45.590;-122.498;2024-03-06T06:02:38;2.70;;;2.30;;
50631;SDS011;49583;45.590;-122.498;2024-03-06T06:04:53;4.70;;;2.70;;
50631;SDS011;49583;45.590;-122.498;2024-03-06T06:07:26;2.50;;;2.30;;
50631;SDS011;49583;45.590;-122.498;2024-03-06T06:09:38;2.60;;;2.00;;
50631;SDS011;49583;45.590;-122.498;2024-03-06T06:11:51;2.40;;;2.20;;
50631;SDS011;49583;45.590;-122.498;2024-03-06T06:14:04;2.90;;;2.60;;
50631;SDS011;49583;45.590;-122.498;2024-03-06T06:16:17;6.20;;;2.80;;
50631;SDS011;49583;45.590;-122.498;2024-03-06T06:18:39;2.50;;;2.30;;
50631;SDS011;49583;45.590;-122.498;2024-03-06T06:20:52;2.60;;;1.90;;
50631;SDS011;49583;45.590;-122.498;2024-03-06T06:23:05;3.10;;;2.40;;
50631;SDS011;49583;45.590;-122.498;2024-03-06T06:25:21;3.30;;;2.00;;
50631;SDS011;49583;45.590;-122.498;2024-03-06T06:27:33;4.70;;;2.30;;
50631;SDS011;49583;45.590;-122.498;2024-03-06T06:29:46;6.90;;;2.80;;
50631;SDS011;49583;45.590;-122.498;2024-03-06T06:32:11;4.40;;;3.70;;
50631;SDS011;49583;45.590;-122.498;2024-03-06T06:34:27;4.80;;;2.80;;
50631;SDS011;49583;45.590;-122.498;2024-03-06T06:36:46;3.00;;;2.50;;
50631;SDS011;49583;45.590;-122.498;2024-03-06T06:39:03;3.30;;;2.70;;
50631;SDS011;49583;45.590;-122.498;2024-03-06T06:41:27;3.60;;;2.70;;
50631;SDS011;49583;45.590;-122.498;2024-03-06T06:43:40;3.20;;;2.70;;
50631;SDS011;49583;45.590;-122.498;2024-03-06T06:45:53;4.30;;;3.70;;
50631;SDS011;49583;45.590;-122.498;2024-03-06T06:48:13;3.70;;;2.50;;
50631;SDS011;49583;45.590;-122.498;2024-03-06T06:50:37;3.90;;;2.80;;
50631;SDS011;49583;45.590;-122.498;2024-03-06T06:52:49;2.60;;;2.40;;
50631;SDS011;49583;45.590;-122.498;2024-03-06T06:55:06;4.00;;;2.80;;
50631;SDS011;49583;45.590;-122.498;2024-03-06T06:57:22;2.80;;;2.60;;
50631;SDS011;49583;45.590;-122.498;2024-03-06T06:59:46;5.00;;;2.60;;
50631;SDS011;49583;45.590;-122.498;2024-03-06T07:01:58;4.50;;;2.80;;
50631;SDS011;49583;45.590;-122.498;2024-03-06T07:04:12;5.30;;;2.70;;
50631;SDS011;49583;45.590;-122.498;2024-03-06T07:06:32;6.60;;;3.00;;
50631;SDS011;49583;45.590;-122.498;2024-03-06T07:08:54;3.00;;;2.70;;
50631;SDS011;49583;45.590;-122.498;2024-03-06T07:11:08;4.60;;;3.60;;
50631;SDS011;49583;45.590;-122.498;2024-03-06T07:13:21;4.00;;;3.40;;
50631;SDS011;49583;45.590;-122.498;2024-03-06T07:15:33;3.10;;;2.80;;
50631;SDS011;49583;45.590;-122.498;2024-03-06T07:17:46;5.30;;;3.10;;
50631;SDS011;49583;45.590;-122.498;2024-03-06T07:20:02;4.90;;;3.60;;
50631;SDS011;49583;45.590;-122.498;2024-03-06T07:22:16;3.00;;;2.70;;
50631;SDS011;49583;45.590;-122.498;2024-03-06T07:24:38;3.30;;;3.00;;
50631;SDS011;49583;45.590;-122.498;2024-03-06T07:26:51;3.50;;;2.80;;
50631;SDS011;49583;45.590;-122.498;2024-03-06T07:29:04;3.90;;;2.50;;
50631;SDS011;49583;45.590;-122.498;2024-03-06T07:31:32;3.40;;;2.60;;
50631;SDS011;49583;45.590;-122.498;2024-03-06T07:33:46;3.10;;;2.70;;
50631;SDS011;49583;45.590;-122.498;2024-03-06T07:36:19;2.90;;;2.40;;
50631;SDS011;49583;45.590;-122.498;2024-03-06T07:38:35;4.10;;;2.60;;
50631;SDS011;49583;45.590;-122.498;2024-03-06T07:41:10;3.10;;;2.80;;
50631;SDS011;49583;45.590;-122.498;2024-03-06T07:43:36;3.00;;;2.50;;
50631;SDS011;49583;45.590;-122.498;2024-03-06T07:45:49;3.20;;;2.30;;
50631;SDS011;49583;45.590;-122.498;2024-03-06T07:48:03;2.80;;;2.00;;
50631;SDS011;49583;45.590;-122.498;2024-03-06T07:50:29;4.10;;;2.40;;
50631;SDS011;49583;45.590;-122.498;2024-03-06T07:52:48;7.10;;;2.30;;
50631;SDS011;49583;45.590;-122.498;2024-03-06T07:55:10;2.90;;;2.60;;
50631;SDS011;49583;45.590;-122.498;2024-03-06T07:57:24;5.10;;;3.00;;
50631;SDS011;49583;45.590;-122.498;2024-03-06T07:59:35;4.70;;;2.90;;
50631;SDS011;49583;45.590;-122.498;2024-03-06T08:04:27;3.30;;;2.40;;
50631;SDS011;49583;45.590;-122.498;2024-03-06T08:06:38;3.20;;;2.90;;
50631;SDS011;49583;45.590;-122.498;2024-03-06T08:08:55;3.20;;;2.70;;
50631;SDS011;49583;45.590;-122.498;2024-03-06T08:11:08;3.30;;;2.60;;
50631;SDS011;49583;45.590;-122.498;2024-03-06T08:13:22;2.90;;;2.60;;
50631;SDS011;49583;45.590;-122.498;2024-03-06T08:15:33;3.30;;;3.00;;
50631;SDS011;49583;45.590;-122.498;2024-03-06T08:17:45;3.60;;;3.10;;
50631;SDS011;49583;45.590;-122.498;2024-03-06T08:20:01;4.30;;;2.90;;
50631;SDS011;49583;45.590;-122.498;2024-03-06T08:22:16;4.50;;;3.10;;
50631;SDS011;49583;45.590;-122.498;2024-03-06T08:24:30;3.20;;;2.80;;
50631;SDS011;49583;45.590;-122.498;2024-03-06T08:26:56;4.40;;;2.90;;
50631;SDS011;49583;45.590;-122.498;2024-03-06T08:29:07;3.20;;;2.90;;
50631;SDS011;49583;45.590;-122.498;2024-03-06T08:31:19;4.40;;;3.10;;
50631;SDS011;49583;45.590;-122.498;2024-03-06T08:33:42;5.00;;;3.20;;
50631;SDS011;49583;45.590;-122.498;2024-03-06T08:35:54;4.00;;;2.90;;
50631;SDS011;49583;45.590;-122.498;2024-03-06T08:38:09;4.00;;;3.10;;
50631;SDS011;49583;45.590;-122.498;2024-03-06T08:40:21;3.60;;;2.90;;
50631;SDS011;49583;45.590;-122.498;2024-03-06T08:42:54;4.70;;;2.90;;
50631;SDS011;49583;45.590;-122.498;2024-03-06T08:45:06;4.60;;;3.00;;
50631;SDS011;49583;45.590;-122.498;2024-03-06T08:47:18;5.40;;;3.50;;
50631;SDS011;49583;45.590;-122.498;2024-03-06T08:49:29;4.50;;;2.80;;
50631;SDS011;49583;45.590;-122.498;2024-03-06T08:52:00;3.00;;;2.70;;
50631;SDS011;49583;45.590;-122.498;2024-03-06T08:54:12;3.40;;;3.00;;
50631;SDS011;49583;45.590;-122.498;2024-03-06T08:56:35;3.80;;;2.50;;
50631;SDS011;49583;45.590;-122.498;2024-03-06T08:58:47;4.10;;;2.80;;
50631;SDS011;49583;45.590;-122.498;2024-03-06T09:01:02;4.70;;;2.70;;
50631;SDS011;49583;45.590;-122.498;2024-03-06T09:03:17;3.10;;;2.50;;
50631;SDS011;49583;45.590;-122.498;2024-03-06T09:05:29;3.80;;;3.00;;
50631;SDS011;49583;45.590;-122.498;2024-03-06T09:07:52;4.90;;;2.60;;
50631;SDS011;49583;45.590;-122.498;2024-03-06T09:10:10;3.10;;;2.60;;
50631;SDS011;49583;45.590;-122.498;2024-03-06T09:12:21;3.20;;;2.80;;
50631;SDS011;49583;45.590;-122.498;2024-03-06T09:14:33;5.70;;;3.10;;
50631;SDS011;49583;45.590;-122.498;2024-03-06T09:16:55;4.00;;;2.80;;
50631;SDS011;49583;45.590;-122.498;2024-03-06T09:19:07;3.20;;;2.60;;
50631;SDS011;49583;45.590;-122.498;2024-03-06T09:21:23;3.30;;;2.80;;
50631;SDS011;49583;45.590;-122.498;2024-03-06T09:23:34;5.80;;;3.10;;
50631;SDS011;49583;45.590;-122.498;2024-03-06T09:25:45;5.90;;;3.20;;
50631;SDS011;49583;45.590;-122.498;2024-03-06T09:28:06;11.00;;;5.80;;
50631;SDS011;49583;45.590;-122.498;2024-03-06T09:30:39;3.80;;;3.00;;
50631;SDS011;49583;45.590;-122.498;2024-03-06T09:32:50;4.00;;;3.20;;
50631;SDS011;49583;45.590;-122.498;2024-03-06T09:35:22;7.30;;;4.30;;
50631;SDS011;49583;45.590;-122.498;2024-03-06T09:37:33;6.40;;;3.70;;
50631;SDS011;49583;45.590;-122.498;2024-03-06T09:39:44;5.40;;;3.50;;
50631;SDS011;49583;45.590;-122.498;2024-03-06T09:41:55;7.00;;;3.80;;
50631;SDS011;49583;45.590;-122.498;2024-03-06T09:44:08;8.70;;;4.50;;
50631;SDS011;49583;45.590;-122.498;2024-03-06T09:46:39;7.30;;;4.70;;
50631;SDS011;49583;45.590;-122.498;2024-03-06T09:48:52;9.20;;;5.00;;
50631;SDS011;49583;45.590;-122.498;2024-03-06T09:51:04;7.40;;;5.30;;
50631;SDS011;49583;45.590;-122.498;2024-03-06T09:53:16;7.00;;;5.10;;
50631;SDS011;49583;45.590;-122.498;2024-03-06T09:55:30;7.90;;;5.00;;
50631;SDS011;49583;45.590;-122.498;2024-03-06T09:57:47;9.80;;;5.20;;
50631;SDS011;49583;45.590;-122.498;2024-03-06T10:00:09;6.90;;;5.20;;
50631;SDS011;49583;45.590;-122.498;2024-03-06T10:02:38;10.50;;;4.90;;
50631;SDS011;49583;45.590;-122.498;2024-03-06T10:04:52;6.90;;;4.90;;
50631;SDS011;49583;45.590;-122.498;2024-03-06T10:07:03;11.20;;;5.20;;
50631;SDS011;49583;45.590;-122.498;2024-03-06T10:09:26;8.20;;;4.90;;
50631;SDS011;49583;45.590;-122.498;2024-03-06T10:11:48;7.00;;;4.30;;
50631;SDS011;49583;45.590;-122.498;2024-03-06T10:14:24;5.40;;;4.00;;
50631;SDS011;49583;45.590;-122.498;2024-03-06T10:16:36;5.20;;;4.50;;
50631;SDS011;49583;45.590;-122.498;2024-03-06T10:19:11;5.90;;;3.90;;
50631;SDS011;49583;45.590;-122.498;2024-03-06T10:21:31;4.80;;;4.00;;
50631;SDS011;49583;45.590;-122.498;2024-03-06T10:23:43;5.10;;;3.80;;
50631;SDS011;49583;45.590;-122.498;2024-03-06T10:25:55;4.40;;;3.90;;
50631;SDS011;49583;45.590;-122.498;2024-03-06T10:28:07;4.90;;;3.50;;
50631;SDS011;49583;45.590;-122.498;2024-03-06T10:30:27;5.00;;;3.60;;
50631;SDS011;49583;45.590;-122.498;2024-03-06T10:32:41;5.50;;;3.80;;
50631;SDS011;49583;45.590;-122.498;2024-03-06T10:34:53;4.70;;;3.70;;
50631;SDS011;49583;45.590;-122.498;2024-03-06T10:37:16;5.90;;;4.00;;
50631;SDS011;49583;45.590;-122.498;2024-03-06T10:39:29;4.30;;;3.90;;
50631;SDS011;49583;45.590;-122.498;2024-03-06T10:41:53;5.10;;;3.70;;
50631;SDS011;49583;45.590;-122.498;2024-03-06T10:44:06;6.30;;;4.20;;
50631;SDS011;49583;45.590;-122.498;2024-03-06T10:46:40;5.70;;;3.40;;
50631;SDS011;49583;45.590;-122.498;2024-03-06T10:48:55;5.70;;;3.90;;
50631;SDS011;49583;45.590;-122.498;2024-03-06T10:51:07;4.20;;;3.70;;
50631;SDS011;49583;45.590;-122.498;2024-03-06T10:53:22;5.20;;;3.60;;
50631;SDS011;49583;45.590;-122.498;2024-03-06T10:55:37;4.40;;;3.50;;
50631;SDS011;49583;45.590;-122.498;2024-03-06T10:58:01;4.20;;;3.40;;
50631;SDS011;49583;45.590;-122.498;2024-03-06T11:00:24;5.00;;;3.30;;
50631;SDS011;49583;45.590;-122.498;2024-03-06T11:02:36;7.80;;;3.60;;
50631;SDS011;49583;45.590;-122.498;2024-03-06T11:04:49;4.90;;;4.20;;
50631;SDS011;49583;45.590;-122.498;2024-03-06T11:07:02;4.20;;;3.60;;
50631;SDS011;49583;45.590;-122.498;2024-03-06T11:09:18;5.30;;;3.70;;
50631;SDS011;49583;45.590;-122.498;2024-03-06T11:11:49;5.40;;;3.60;;
50631;SDS011;49583;45.590;-122.498;2024-03-06T11:14:04;4.90;;;3.80;;
50631;SDS011;49583;45.590;-122.498;2024-03-06T11:16:17;5.30;;;3.90;;
50631;SDS011;49583;45.590;-122.498;2024-03-06T11:18:46;6.40;;;3.70;;
50631;SDS011;49583;45.590;-122.498;2024-03-06T11:21:03;4.00;;;3.50;;
50631;SDS011;49583;45.590;-122.498;2024-03-06T11:24:11;5.60;;;4.20;;
50631;SDS011;49583;45.590;-122.498;2024-03-06T11:32:27;4.80;;;3.00;;
50631;SDS011;49583;45.590;-122.498;2024-03-06T11:34:39;5.90;;;3.70;;
50631;SDS011;49583;45.590;-122.498;2024-03-06T11:36:52;3.90;;;3.50;;
50631;SDS011;49583;45.590;-122.498;2024-03-06T11:39:04;4.30;;;3.30;;
50631;SDS011;49583;45.590;-122.498;2024-03-06T11:43:27;3.90;;;3.20;;
50631;SDS011;49583;45.590;-122.498;2024-03-06T11:48:37;3.60;;;3.20;;
50631;SDS011;49583;45.590;-122.498;2024-03-06T11:50:49;5.20;;;3.10;;
50631;SDS011;49583;45.590;-122.498;2024-03-06T11:53:01;7.10;;;3.40;;
50631;SDS011;49583;45.590;-122.498;2024-03-06T11:55:15;4.20;;;3.00;;
50631;SDS011;49583;45.590;-122.498;2024-03-06T11:57:27;3.30;;;2.90;;
50631;SDS011;49583;45.590;-122.498;2024-03-06T11:59:38;3.70;;;3.20;;
50631;SDS011;49583;45.590;-122.498;2024-03-06T12:01:49;5.40;;;3.80;;
50631;SDS011;49583;45.590;-122.498;2024-03-06T12:04:00;3.70;;;3.40;;
50631;SDS011;49583;45.590;-122.498;2024-03-06T12:06:12;4.50;;;3.80;;
50631;SDS011;49583;45.590;-122.498;2024-03-06T12:08:25;4.60;;;3.60;;
50631;SDS011;49583;45.590;-122.498;2024-03-06T12:10:40;4.60;;;3.50;;
50631;SDS011;49583;45.590;-122.498;2024-03-06T12:12:53;5.10;;;3.30;;
50631;SDS011;49583;45.590;-122.498;2024-03-06T12:15:05;3.70;;;3.20;;
50631;SDS011;49583;45.590;-122.498;2024-03-06T12:17:17;3.80;;;3.50;;
50631;SDS011;49583;45.590;-122.498;2024-03-06T12:19:31;5.60;;;3.80;;
50631;SDS011;49583;45.590;-122.498;2024-03-06T12:21:43;4.20;;;3.30;;
50631;SDS011;49583;45.590;-122.498;2024-03-06T12:24:06;4.60;;;3.70;;
50631;SDS011;49583;45.590;-122.498;2024-03-06T12:26:22;6.70;;;3.80;;
50631;SDS011;49583;45.590;-122.498;2024-03-06T12:28:33;5.70;;;4.10;;
50631;SDS011;49583;45.590;-122.498;2024-03-06T12:30:44;7.90;;;4.60;;
50631;SDS011;49583;45.590;-122.498;2024-03-06T12:33:00;3.40;;;2.80;;
50631;SDS011;49583;45.590;-122.498;2024-03-06T12:35:12;4.80;;;3.90;;
50631;SDS011;49583;45.590;-122.498;2024-03-06T12:37:32;4.10;;;3.60;;
50631;SDS011;49583;45.590;-122.498;2024-03-06T12:39:43;5.50;;;3.30;;
50631;SDS011;49583;45.590;-122.498;2024-03-06T12:41:55;5.30;;;3.10;;
50631;SDS011;49583;45.590;-122.498;2024-03-06T12:44:06;6.20;;;5.00;;
50631;SDS011;49583;45.590;-122.498;2024-03-06T12:46:17;8.60;;;4.50;;
50631;SDS011;49583;45.590;-122.498;2024-03-06T12:48:28;8.20;;;4.90;;
50631;SDS011;49583;45.590;-122.498;2024-03-06T12:50:39;8.40;;;6.30;;
50631;SDS011;49583;45.590;-122.498;2024-03-06T12:52:52;8.70;;;6.90;;
50631;SDS011;49583;45.590;-122.498;2024-03-06T12:55:04;7.30;;;5.50;;
50631;SDS011;49583;45.590;-122.498;2024-03-06T12:57:16;8.80;;;5.50;;
50631;SDS011;49583;45.590;-122.498;2024-03-06T12:59:26;6.60;;;5.80;;
50631;SDS011;49583;45.590;-122.498;2024-03-06T13:01:37;12.10;;;6.50;;
50631;SDS011;49583;45.590;-122.498;2024-03-06T13:03:48;7.90;;;5.80;;
50631;SDS011;49583;45.590;-122.498;2024-03-06T13:06:10;10.30;;;7.30;;
50631;SDS011;49583;45.590;-122.498;2024-03-06T13:08:23;11.60;;;7.30;;
50631;SDS011;49583;45.590;-122.498;2024-03-06T13:10:34;9.80;;;7.40;;
50631;SDS011;49583;45.590;-122.498;2024-03-06T13:12:45;16.40;;;7.40;;
50631;SDS011;49583;45.590;-122.498;2024-03-06T13:14:59;11.50;;;8.20;;
50631;SDS011;49583;45.590;-122.498;2024-03-06T13:17:10;16.00;;;8.30;;
50631;SDS011;49583;45.590;-122.498;2024-03-06T13:19:21;18.30;;;9.00;;
50631;SDS011;49583;45.590;-122.498;2024-03-06T13:21:32;19.30;;;9.00;;
50631;SDS011;49583;45.590;-122.498;2024-03-06T13:23:43;15.80;;;9.00;;
50631;SDS011;49583;45.590;-122.498;2024-03-06T13:25:55;16.50;;;9.00;;